sensor_id;sensor_type;location;lat;lon;timestamp;P1;durP1;ratioP1;P2;durP2;ratioP2
74535;SDS011;63013;51.104;-115.370;2023-02-21T00:00:53;0.70;;;0.30;;
74535;SDS011;63013;51.104;-115.370;2023-02-21T00:03:39;0.40;;;0.40;;
74535;SDS011;63013;51.104;-115.370;2023-02-21T00:06:24;0.50;;;0.30;;
74535;SDS011;63013;51.104;-115.370;2023-02-21T00:09:10;0.40;;;0.40;;
74535;SDS011;63013;51.104;-115.370;2023-02-21T00:11:55;0.30;;;0.30;;
74535;SDS011;63013;51.104;-115.370;2023-02-21T00:14:40;0.30;;;0.30;;
74535;SDS011;63013;51.104;-115.370;2023-02-21T00:17:26;0.30;;;0.30;;
74535;SDS011;63013;51.104;-115.370;2023-02-21T00:20:12;1.50;;;0.60;;
74535;SDS011;63013;51.104;-115.370;2023-02-21T00:22:57;23.60;;;3.30;;
74535;SDS011;63013;51.104;-115.370;2023-02-21T00:25:43;19.90;;;3.10;;
74535;SDS011;63013;51.104;-115.370;2023-02-21T00:28:31;17.80;;;3.70;;
74535;SDS011;63013;51.104;-115.370;2023-02-21T00:31:19;19.50;;;3.80;;
74535;SDS011;63013;51.104;-115.370;2023-02-21T00:34:04;16.80;;;2.90;;
74535;SDS011;63013;51.104;-115.370;2023-02-21T00:36:51;14.50;;;2.80;;
74535;SDS011;63013;51.104;-115.370;2023-02-21T00:39:37;13.50;;;2.60;;
74535;SDS011;63013;51.104;-115.370;2023-02-21T00:42:22;12.30;;;2.80;;
74535;SDS011;63013;51.104;-115.370;2023-02-21T00:45:07;11.50;;;2.50;;
74535;SDS011;63013;51.104;-115.370;2023-02-21T00:47:54;14.90;;;4.20;;
74535;SDS011;63013;51.104;-115.370;2023-02-21T00:50:39;11.80;;;2.20;;
74535;SDS011;63013;51.104;-115.370;2023-02-21T00:53:25;12.50;;;2.50;;
74535;SDS011;63013;51.104;-115.370;2023-02-21T00:56:13;11.10;;;2.50;;
74535;SDS011;63013;51.104;-115.370;2023-02-21T00:59:02;12.00;;;2.90;;
74535;SDS011;63013;51.104;-115.370;2023-02-21T01:01:47;8.60;;;2.10;;
74535;SDS011;63013;51.104;-115.370;2023-02-21T01:04:33;11.40;;;2.40;;
74535;SDS011;63013;51.104;-115.370;2023-02-21T01:07:18;9.80;;;2.50;;
74535;SDS011;63013;51.104;-115.370;2023-02-21T01:10:03;10.10;;;2.30;;
74535;SDS011;63013;51.104;-115.370;2023-02-21T01:12:49;12.30;;;2.30;;
74535;SDS011;63013;51.104;-115.370;2023-02-21T01:15:35;10.70;;;2.50;;
74535;SDS011;63013;51.104;-115.370;2023-02-21T01:18:20;9.60;;;1.90;;
74535;SDS011;63013;51.104;-115.370;2023-02-21T01:21:06;11.70;;;2.30;;
74535;SDS011;63013;51.104;-115.370;2023-02-21T01:23:57;11.00;;;2.30;;
74535;SDS011;63013;51.104;-115.370;2023-02-21T01:26:42;8.70;;;2.10;;
74535;SDS011;63013;51.104;-115.370;2023-02-21T01:29:27;11.90;;;2.10;;
74535;SDS011;63013;51.104;-115.370;2023-02-21T01:32:13;9.20;;;2.30;;
74535;SDS011;63013;51.104;-115.370;2023-02-21T01:34:58;6.50;;;1.90;;
74535;SDS011;63013;51.104;-115.370;2023-02-21T01:37:43;8.00;;;2.00;;
74535;SDS011;63013;51.104;-115.370;2023-02-21T01:40:29;6.30;;;1.80;;
74535;SDS011;63013;51.104;-115.370;2023-02-21T01:43:19;7.00;;;2.00;;
74535;SDS011;63013;51.104;-115.370;2023-02-21T01:46:10;8.10;;;2.00;;
74535;SDS011;63013;51.104;-115.370;2023-02-21T01:49:00;8.20;;;2.40;;
74535;SDS011;63013;51.104;-115.370;2023-02-21T01:51:52;8.50;;;1.70;;
74535;SDS011;63013;51.104;-115.370;2023-02-21T01:54:41;8.60;;;2.20;;
74535;SDS011;63013;51.104;-115.370;2023-02-21T01:57:29;6.40;;;1.80;;
74535;SDS011;63013;51.104;-115.370;2023-02-21T02:00:16;7.80;;;2.10;;
74535;SDS011;63013;51.104;-115.370;2023-02-21T02:03:07;7.00;;;2.10;;
74535;SDS011;63013;51.104;-115.370;2023-02-21T02:06:17;6.90;;;2.00;;
74535;SDS011;63013;51.104;-115.370;2023-02-21T02:09:16;6.90;;;1.90;;
74535;SDS011;63013;51.104;-115.370;2023-02-21T02:18:24;5.60;;;1.80;;
74535;SDS011;63013;51.104;-115.370;2023-02-21T02:24:36;6.30;;;1.90;;
74535;SDS011;63013;51.104;-115.370;2023-02-21T02:30:44;6.20;;;2.10;;
74535;SDS011;63013;51.104;-115.370;2023-02-21T02:36:50;5.80;;;1.80;;
74535;SDS011;63013;51.104;-115.370;2023-02-21T02:42:25;6.80;;;1.60;;
74535;SDS011;63013;51.104;-115.370;2023-02-21T02:45:08;5.30;;;1.70;;
74535;SDS011;63013;51.104;-115.370;2023-02-21T02:47:43;4.70;;;1.70;;
74535;SDS011;63013;51.104;-115.370;2023-02-21T02:50:16;6.10;;;1.80;;
74535;SDS011;63013;51.104;-115.370;2023-02-21T02:52:55;5.90;;;1.70;;
74535;SDS011;63013;51.104;-115.370;2023-02-21T02:56:18;5.10;;;1.80;;
74535;SDS011;63013;51.104;-115.370;2023-02-21T02:58:33;6.10;;;1.50;;
74535;SDS011;63013;51.104;-115.370;2023-02-21T03:04:31;7.10;;;1.50;;
74535;SDS011;63013;51.104;-115.370;2023-02-21T03:07:25;5.40;;;1.50;;
74535;SDS011;63013;51.104;-115.370;2023-02-21T03:13:08;6.20;;;1.70;;
74535;SDS011;63013;51.104;-115.370;2023-02-21T03:15:47;5.40;;;1.70;;
74535;SDS011;63013;51.104;-115.370;2023-02-21T03:18:30;4.40;;;1.60;;
74535;SDS011;63013;51.104;-115.370;2023-02-21T03:21:12;4.00;;;1.40;;
74535;SDS011;63013;51.104;-115.370;2023-02-21T03:23:44;5.90;;;1.60;;
74535;SDS011;63013;51.104;-115.370;2023-02-21T03:26:16;6.00;;;1.50;;
74535;SDS011;63013;51.104;-115.370;2023-02-21T03:28:45;3.60;;;1.30;;
74535;SDS011;63013;51.104;-115.370;2023-02-21T03:31:16;4.80;;;1.40;;
74535;SDS011;63013;51.104;-115.370;2023-02-21T03:33:48;4.70;;;1.40;;
74535;SDS011;63013;51.104;-115.370;2023-02-21T03:36:15;5.00;;;1.50;;
74535;SDS011;63013;51.104;-115.370;2023-02-21T03:38:42;5.00;;;1.40;;
74535;SDS011;63013;51.104;-115.370;2023-02-21T03:41:11;7.30;;;1.60;;
74535;SDS011;63013;51.104;-115.370;2023-02-21T03:43:40;4.40;;;1.30;;
74535;SDS011;63013;51.104;-115.370;2023-02-21T03:46:07;5.10;;;1.30;;
74535;SDS011;63013;51.104;-115.370;2023-02-21T03:48:35;3.70;;;1.50;;
74535;SDS011;63013;51.104;-115.370;2023-02-21T03:51:02;6.50;;;1.60;;
74535;SDS011;63013;51.104;-115.370;2023-02-21T03:53:29;5.10;;;1.50;;
74535;SDS011;63013;51.104;-115.370;2023-02-21T03:55:58;2.40;;;1.20;;
74535;SDS011;63013;51.104;-115.370;2023-02-21T03:58:25;5.40;;;1.60;;
74535;SDS011;63013;51.104;-115.370;2023-02-21T04:00:52;4.40;;;1.50;;
74535;SDS011;63013;51.104;-115.370;2023-02-21T04:03:20;4.70;;;1.30;;
74535;SDS011;63013;51.104;-115.370;2023-02-21T04:05:46;3.80;;;1.10;;
74535;SDS011;63013;51.104;-115.370;2023-02-21T04:08:14;3.80;;;1.20;;
74535;SDS011;63013;51.104;-115.370;2023-02-21T04:10:41;4.10;;;1.50;;
74535;SDS011;63013;51.104;-115.370;2023-02-21T04:13:08;4.70;;;1.30;;
74535;SDS011;63013;51.104;-115.370;2023-02-21T04:15:35;4.20;;;1.30;;
74535;SDS011;63013;51.104;-115.370;2023-02-21T04:18:02;3.60;;;1.30;;
74535;SDS011;63013;51.104;-115.370;2023-02-21T04:20:29;3.20;;;1.10;;
74535;SDS011;63013;51.104;-115.370;2023-02-21T04:22:57;2.90;;;1.30;;
74535;SDS011;63013;51.104;-115.370;2023-02-21T04:25:24;4.50;;;1.30;;
74535;SDS011;63013;51.104;-115.370;2023-02-21T04:27:51;3.20;;;1.80;;
74535;SDS011;63013;51.104;-115.370;2023-02-21T04:30:19;5.70;;;1.30;;
74535;SDS011;63013;51.104;-115.370;2023-02-21T04:32:46;5.20;;;1.30;;
74535;SDS011;63013;51.104;-115.370;2023-02-21T04:35:13;3.20;;;1.20;;
74535;SDS011;63013;51.104;-115.370;2023-02-21T04:37:40;4.00;;;1.50;;
74535;SDS011;63013;51.104;-115.370;2023-02-21T04:40:10;2.70;;;1.20;;
74535;SDS011;63013;51.104;-115.370;2023-02-21T04:42:38;4.30;;;1.60;;
74535;SDS011;63013;51.104;-115.370;2023-02-21T04:45:05;2.60;;;1.10;;
74535;SDS011;63013;51.104;-115.370;2023-02-21T04:47:32;3.90;;;1.30;;
74535;SDS011;63013;51.104;-115.370;2023-02-21T04:49:59;3.10;;;1.10;;
74535;SDS011;63013;51.104;-115.370;2023-02-21T04:52:27;4.80;;;1.30;;
74535;SDS011;63013;51.104;-115.370;2023-02-21T04:54:54;3.90;;;1.00;;
74535;SDS011;63013;51.104;-115.370;2023-02-21T04:57:22;3.20;;;1.30;;
74535;SDS011;63013;51.104;-115.370;2023-02-21T04:59:55;3.30;;;1.10;;
74535;SDS011;63013;51.104;-115.370;2023-02-21T05:02:24;3.90;;;1.30;;
74535;SDS011;63013;51.104;-115.370;2023-02-21T05:04:51;4.50;;;1.20;;
74535;SDS011;63013;51.104;-115.370;2023-02-21T05:07:18;3.80;;;1.10;;
74535;SDS011;63013;51.104;-115.370;2023-02-21T05:09:46;3.80;;;1.20;;
74535;SDS011;63013;51.104;-115.370;2023-02-21T05:12:13;3.50;;;1.40;;
74535;SDS011;63013;51.104;-115.370;2023-02-21T05:14:40;4.00;;;1.20;;
74535;SDS011;63013;51.104;-115.370;2023-02-21T05:17:08;3.40;;;1.10;;
74535;SDS011;63013;51.104;-115.370;2023-02-21T05:19:35;4.40;;;1.00;;
74535;SDS011;63013;51.104;-115.370;2023-02-21T05:22:02;2.70;;;1.00;;
74535;SDS011;63013;51.104;-115.370;2023-02-21T05:24:33;3.90;;;1.20;;
74535;SDS011;63013;51.104;-115.370;2023-02-21T05:27:00;3.10;;;1.10;;
74535;SDS011;63013;51.104;-115.370;2023-02-21T05:29:28;3.00;;;1.10;;
74535;SDS011;63013;51.104;-115.370;2023-02-21T05:31:55;3.30;;;1.40;;
74535;SDS011;63013;51.104;-115.370;2023-02-21T05:34:22;2.90;;;1.10;;
74535;SDS011;63013;51.104;-115.370;2023-02-21T05:36:49;3.70;;;0.90;;
74535;SDS011;63013;51.104;-115.370;2023-02-21T05:39:16;3.00;;;1.10;;
74535;SDS011;63013;51.104;-115.370;2023-02-21T05:41:48;4.30;;;1.40;;
74535;SDS011;63013;51.104;-115.370;2023-02-21T05:44:16;2.60;;;1.00;;
74535;SDS011;63013;51.104;-115.370;2023-02-21T05:46:43;3.20;;;1.30;;
74535;SDS011;63013;51.104;-115.370;2023-02-21T05:49:11;4.00;;;1.30;;
74535;SDS011;63013;51.104;-115.370;2023-02-21T05:51:41;2.80;;;0.90;;
74535;SDS011;63013;51.104;-115.370;2023-02-21T05:54:16;3.10;;;1.10;;
74535;SDS011;63013;51.104;-115.370;2023-02-21T05:56:46;3.20;;;1.30;;
74535;SDS011;63013;51.104;-115.370;2023-02-21T05:59:16;3.70;;;1.10;;
74535;SDS011;63013;51.104;-115.370;2023-02-21T06:01:45;2.70;;;1.00;;
74535;SDS011;63013;51.104;-115.370;2023-02-21T06:04:13;3.40;;;1.10;;
74535;SDS011;63013;51.104;-115.370;2023-02-21T06:06:41;4.40;;;1.10;;
74535;SDS011;63013;51.104;-115.370;2023-02-21T06:09:09;4.00;;;1.10;;
74535;SDS011;63013;51.104;-115.370;2023-02-21T06:11:37;3.10;;;1.10;;
74535;SDS011;63013;51.104;-115.370;2023-02-21T06:14:08;2.10;;;1.00;;
74535;SDS011;63013;51.104;-115.370;2023-02-21T06:16:41;2.40;;;1.00;;
74535;SDS011;63013;51.104;-115.370;2023-02-21T06:19:08;2.00;;;1.10;;
74535;SDS011;63013;51.104;-115.370;2023-02-21T06:21:38;3.10;;;1.10;;
74535;SDS011;63013;51.104;-115.370;2023-02-21T06:24:07;2.20;;;0.90;;
74535;SDS011;63013;51.104;-115.370;2023-02-21T06:26:35;4.40;;;1.10;;
74535;SDS011;63013;51.104;-115.370;2023-02-21T06:29:06;2.20;;;0.90;;
74535;SDS011;63013;51.104;-115.370;2023-02-21T06:31:34;3.10;;;1.20;;
74535;SDS011;63013;51.104;-115.370;2023-02-21T06:34:01;3.00;;;0.80;;
74535;SDS011;63013;51.104;-115.370;2023-02-21T06:36:29;2.10;;;0.80;;
74535;SDS011;63013;51.104;-115.370;2023-02-21T06:38:57;1.50;;;1.00;;
74535;SDS011;63013;51.104;-115.370;2023-02-21T06:41:26;2.40;;;1.00;;
74535;SDS011;63013;51.104;-115.370;2023-02-21T06:43:56;2.40;;;1.20;;
74535;SDS011;63013;51.104;-115.370;2023-02-21T06:46:27;1.70;;;0.90;;
74535;SDS011;63013;51.104;-115.370;2023-02-21T06:48:55;3.30;;;1.10;;
74535;SDS011;63013;51.104;-115.370;2023-02-21T06:51:23;2.50;;;1.00;;
74535;SDS011;63013;51.104;-115.370;2023-02-21T06:53:55;2.60;;;0.90;;
74535;SDS011;63013;51.104;-115.370;2023-02-21T06:56:23;3.30;;;1.00;;
74535;SDS011;63013;51.104;-115.370;2023-02-21T06:58:50;2.30;;;0.80;;
74535;SDS011;63013;51.104;-115.370;2023-02-21T07:01:17;2.10;;;0.90;;
74535;SDS011;63013;51.104;-115.370;2023-02-21T07:03:45;2.20;;;0.90;;
74535;SDS011;63013;51.104;-115.370;2023-02-21T07:06:12;2.20;;;0.90;;
74535;SDS011;63013;51.104;-115.370;2023-02-21T07:08:40;3.50;;;1.00;;
74535;SDS011;63013;51.104;-115.370;2023-02-21T07:11:07;3.00;;;1.00;;
74535;SDS011;63013;51.104;-115.370;2023-02-21T07:13:35;2.50;;;0.90;;
74535;SDS011;63013;51.104;-115.370;2023-02-21T07:16:02;2.40;;;0.90;;
74535;SDS011;63013;51.104;-115.370;2023-02-21T07:18:30;2.60;;;0.90;;
74535;SDS011;63013;51.104;-115.370;2023-02-21T07:20:58;2.20;;;1.00;;
74535;SDS011;63013;51.104;-115.370;2023-02-21T07:23:25;3.40;;;0.70;;
74535;SDS011;63013;51.104;-115.370;2023-02-21T07:25:52;2.70;;;0.90;;
74535;SDS011;63013;51.104;-115.370;2023-02-21T07:28:19;2.70;;;0.80;;
74535;SDS011;63013;51.104;-115.370;2023-02-21T07:30:47;2.50;;;0.90;;
74535;SDS011;63013;51.104;-115.370;2023-02-21T07:33:14;2.10;;;0.90;;
74535;SDS011;63013;51.104;-115.370;2023-02-21T07:35:41;1.80;;;0.70;;
74535;SDS011;63013;51.104;-115.370;2023-02-21T07:38:08;2.10;;;0.90;;
74535;SDS011;63013;51.104;-115.370;2023-02-21T07:40:36;2.10;;;0.80;;
74535;SDS011;63013;51.104;-115.370;2023-02-21T07:43:03;3.40;;;1.10;;
74535;SDS011;63013;51.104;-115.370;2023-02-21T07:45:30;2.40;;;0.80;;
74535;SDS011;63013;51.104;-115.370;2023-02-21T07:47:57;2.50;;;0.90;;
74535;SDS011;63013;51.104;-115.370;2023-02-21T07:50:24;2.30;;;0.90;;
74535;SDS011;63013;51.104;-115.370;2023-02-21T07:52:52;2.50;;;1.00;;
74535;SDS011;63013;51.104;-115.370;2023-02-21T07:55:19;4.20;;;1.20;;
74535;SDS011;63013;51.104;-115.370;2023-02-21T07:57:46;1.60;;;0.80;;
74535;SDS011;63013;51.104;-115.370;2023-02-21T08:00:13;1.90;;;0.70;;
74535;SDS011;63013;51.104;-115.370;2023-02-21T08:02:41;2.40;;;0.80;;
74535;SDS011;63013;51.104;-115.370;2023-02-21T08:05:14;2.70;;;1.00;;
74535;SDS011;63013;51.104;-115.370;2023-02-21T08:07:43;2.90;;;0.80;;
74535;SDS011;63013;51.104;-115.370;2023-02-21T08:10:11;3.20;;;1.00;;
74535;SDS011;63013;51.104;-115.370;2023-02-21T08:12:39;3.30;;;1.10;;
74535;SDS011;63013;51.104;-115.370;2023-02-21T08:15:06;2.00;;;0.80;;
74535;SDS011;63013;51.104;-115.370;2023-02-21T08:17:34;3.10;;;1.10;;
74535;SDS011;63013;51.104;-115.370;2023-02-21T08:20:02;2.20;;;1.00;;
74535;SDS011;63013;51.104;-115.370;2023-02-21T08:22:31;2.70;;;1.00;;
74535;SDS011;63013;51.104;-115.370;2023-02-21T08:24:58;1.60;;;0.80;;
74535;SDS011;63013;51.104;-115.370;2023-02-21T08:27:25;2.00;;;0.80;;
74535;SDS011;63013;51.104;-115.370;2023-02-21T08:29:52;2.50;;;0.90;;
74535;SDS011;63013;51.104;-115.370;2023-02-21T08:32:19;1.80;;;0.80;;
74535;SDS011;63013;51.104;-115.370;2023-02-21T08:34:49;2.50;;;0.70;;
74535;SDS011;63013;51.104;-115.370;2023-02-21T08:37:16;2.20;;;0.80;;
74535;SDS011;63013;51.104;-115.370;2023-02-21T08:39:46;1.90;;;0.80;;
74535;SDS011;63013;51.104;-115.370;2023-02-21T08:42:18;2.00;;;0.80;;
74535;SDS011;63013;51.104;-115.370;2023-02-21T08:44:46;1.90;;;0.80;;
74535;SDS011;63013;51.104;-115.370;2023-02-21T08:47:14;1.90;;;0.80;;
74535;SDS011;63013;51.104;-115.370;2023-02-21T08:49:46;2.40;;;0.90;;
74535;SDS011;63013;51.104;-115.370;2023-02-21T08:52:15;1.60;;;0.70;;
74535;SDS011;63013;51.104;-115.370;2023-02-21T08:54:44;1.40;;;0.60;;
74535;SDS011;63013;51.104;-115.370;2023-02-21T08:57:12;1.40;;;0.80;;
74535;SDS011;63013;51.104;-115.370;2023-02-21T08:59:43;1.70;;;0.60;;
74535;SDS011;63013;51.104;-115.370;2023-02-21T09:02:19;1.80;;;0.90;;
74535;SDS011;63013;51.104;-115.370;2023-02-21T09:04:48;2.30;;;0.80;;
74535;SDS011;63013;51.104;-115.370;2023-02-21T09:07:16;1.70;;;0.80;;
74535;SDS011;63013;51.104;-115.370;2023-02-21T09:09:45;1.40;;;0.70;;
74535;SDS011;63013;51.104;-115.370;2023-02-21T09:12:13;1.60;;;0.80;;
74535;SDS011;63013;51.104;-115.370;2023-02-21T09:14:41;1.00;;;0.60;;
74535;SDS011;63013;51.104;-115.370;2023-02-21T09:17:11;2.20;;;0.90;;
74535;SDS011;63013;51.104;-115.370;2023-02-21T09:19:39;2.20;;;0.80;;
74535;SDS011;63013;51.104;-115.370;2023-02-21T09:22:10;2.20;;;0.80;;
74535;SDS011;63013;51.104;-115.370;2023-02-21T09:24:40;2.20;;;1.10;;
74535;SDS011;63013;51.104;-115.370;2023-02-21T09:27:07;2.80;;;0.80;;
74535;SDS011;63013;51.104;-115.370;2023-02-21T09:29:35;2.70;;;0.80;;
74535;SDS011;63013;51.104;-115.370;2023-02-21T09:32:03;2.00;;;0.70;;
74535;SDS011;63013;51.104;-115.370;2023-02-21T09:34:30;2.00;;;0.80;;
74535;SDS011;63013;51.104;-115.370;2023-02-21T09:36:57;2.40;;;0.90;;
74535;SDS011;63013;51.104;-115.370;2023-02-21T09:43:12;1.50;;;0.80;;
74535;SDS011;63013;51.104;-115.370;2023-02-21T09:46:47;1.90;;;0.70;;
74535;SDS011;63013;51.104;-115.370;2023-02-21T09:48:55;3.30;;;0.70;;
74535;SDS011;63013;51.104;-115.370;2023-02-21T09:51:23;2.30;;;0.80;;
74535;SDS011;63013;51.104;-115.370;2023-02-21T09:53:54;1.80;;;0.70;;
74535;SDS011;63013;51.104;-115.370;2023-02-21T09:56:35;1.60;;;0.80;;
74535;SDS011;63013;51.104;-115.370;2023-02-21T09:59:12;2.00;;;0.80;;
74535;SDS011;63013;51.104;-115.370;2023-02-21T10:10:57;1.90;;;0.80;;
74535;SDS011;63013;51.104;-115.370;2023-02-21T10:13:45;1.40;;;0.50;;
74535;SDS011;63013;51.104;-115.370;2023-02-21T10:19:23;2.40;;;1.00;;
74535;SDS011;63013;51.104;-115.370;2023-02-21T10:21:56;1.00;;;0.50;;
74535;SDS011;63013;51.104;-115.370;2023-02-21T10:24:27;2.40;;;0.80;;
74535;SDS011;63013;51.104;-115.370;2023-02-21T10:29:59;2.10;;;0.70;;
74535;SDS011;63013;51.104;-115.370;2023-02-21T10:32:30;2.00;;;0.60;;
74535;SDS011;63013;51.104;-115.370;2023-02-21T10:34:58;1.60;;;0.70;;
74535;SDS011;63013;51.104;-115.370;2023-02-21T10:37:44;1.50;;;0.70;;
74535;SDS011;63013;51.104;-115.370;2023-02-21T10:40:39;1.60;;;0.70;;
74535;SDS011;63013;51.104;-115.370;2023-02-21T10:44:14;1.40;;;0.80;;
74535;SDS011;63013;51.104;-115.370;2023-02-21T10:46:39;0.90;;;0.60;;
74535;SDS011;63013;51.104;-115.370;2023-02-21T10:49:26;1.00;;;0.50;;
74535;SDS011;63013;51.104;-115.370;2023-02-21T10:52:16;1.10;;;0.60;;
74535;SDS011;63013;51.104;-115.370;2023-02-21T10:57:45;1.20;;;0.60;;
74535;SDS011;63013;51.104;-115.370;2023-02-21T11:00:33;1.30;;;0.70;;
74535;SDS011;63013;51.104;-115.370;2023-02-21T11:03:30;0.90;;;0.60;;
74535;SDS011;63013;51.104;-115.370;2023-02-21T11:05:58;1.70;;;0.60;;
74535;SDS011;63013;51.104;-115.370;2023-02-21T11:08:42;1.80;;;0.90;;
74535;SDS011;63013;51.104;-115.370;2023-02-21T11:11:10;1.30;;;0.80;;
74535;SDS011;63013;51.104;-115.370;2023-02-21T11:13:37;1.80;;;0.80;;
74535;SDS011;63013;51.104;-115.370;2023-02-21T11:16:17;1.80;;;0.80;;
74535;SDS011;63013;51.104;-115.370;2023-02-21T11:19:06;1.20;;;0.60;;
74535;SDS011;63013;51.104;-115.370;2023-02-21T11:21:38;2.10;;;0.70;;
74535;SDS011;63013;51.104;-115.370;2023-02-21T11:24:11;1.50;;;0.70;;
74535;SDS011;63013;51.104;-115.370;2023-02-21T11:26:50;1.50;;;0.70;;
74535;SDS011;63013;51.104;-115.370;2023-02-21T11:29:25;0.90;;;0.60;;
74535;SDS011;63013;51.104;-115.370;2023-02-21T11:31:52;1.10;;;0.50;;
74535;SDS011;63013;51.104;-115.370;2023-02-21T11:34:20;1.40;;;0.80;;
74535;SDS011;63013;51.104;-115.370;2023-02-21T11:37:02;1.90;;;0.60;;
74535;SDS011;63013;51.104;-115.370;2023-02-21T11:39:33;1.20;;;0.60;;
74535;SDS011;63013;51.104;-115.370;2023-02-21T11:42:03;1.60;;;0.50;;
74535;SDS011;63013;51.104;-115.370;2023-02-21T11:45:00;1.50;;;0.60;;
74535;SDS011;63013;51.104;-115.370;2023-02-21T11:47:45;1.30;;;0.50;;
74535;SDS011;63013;51.104;-115.370;2023-02-21T11:50:29;0.90;;;0.40;;
74535;SDS011;63013;51.104;-115.370;2023-02-21T11:56:06;1.30;;;0.50;;
74535;SDS011;63013;51.104;-115.370;2023-02-21T12:02:16;1.30;;;0.70;;
74535;SDS011;63013;51.104;-115.370;2023-02-21T12:22:58;1.00;;;0.50;;
74535;SDS011;63013;51.104;-115.370;2023-02-21T12:25:47;1.20;;;0.50;;
74535;SDS011;63013;51.104;-115.370;2023-02-21T12:34:39;0.90;;;0.50;;
74535;SDS011;63013;51.104;-115.370;2023-02-21T12:38:06;1.90;;;0.50;;
74535;SDS011;63013;51.104;-115.370;2023-02-21T12:43:32;1.40;;;0.50;;
74535;SDS011;63013;51.104;-115.370;2023-02-21T12:49:42;1.30;;;0.50;;
74535;SDS011;63013;51.104;-115.370;2023-02-21T12:52:24;1.10;;;0.60;;
74535;SDS011;63013;51.104;-115.370;2023-02-21T12:55:11;1.10;;;0.60;;
74535;SDS011;63013;51.104;-115.370;2023-02-21T12:57:59;0.90;;;0.70;;
74535;SDS011;63013;51.104;-115.370;2023-02-21T13:00:57;1.10;;;0.50;;
74535;SDS011;63013;51.104;-115.370;2023-02-21T13:09:33;0.90;;;0.40;;
74535;SDS011;63013;51.104;-115.370;2023-02-21T13:12:15;1.40;;;0.40;;
74535;SDS011;63013;51.104;-115.370;2023-02-21T13:14:51;1.10;;;0.40;;
74535;SDS011;63013;51.104;-115.370;2023-02-21T13:17:23;1.80;;;0.50;;
74535;SDS011;63013;51.104;-115.370;2023-02-21T13:20:03;0.80;;;0.40;;
74535;SDS011;63013;51.104;-115.370;2023-02-21T13:29:16;0.70;;;0.30;;
74535;SDS011;63013;51.104;-115.370;2023-02-21T13:32:05;0.60;;;0.30;;
74535;SDS011;63013;51.104;-115.370;2023-02-21T13:35:04;0.60;;;0.40;;
74535;SDS011;63013;51.104;-115.370;2023-02-21T13:37:35;0.60;;;0.40;;
74535;SDS011;63013;51.104;-115.370;2023-02-21T13:40:23;0.80;;;0.40;;
74535;SDS011;63013;51.104;-115.370;2023-02-21T13:43:03;0.70;;;0.30;;
74535;SDS011;63013;51.104;-115.370;2023-02-21T13:45:51;0.70;;;0.30;;
74535;SDS011;63013;51.104;-115.370;2023-02-21T13:48:25;0.60;;;0.30;;
74535;SDS011;63013;51.104;-115.370;2023-02-21T13:50:59;0.50;;;0.30;;
74535;SDS011;63013;51.104;-115.370;2023-02-21T13:53:32;0.60;;;0.30;;
74535;SDS011;63013;51.104;-115.370;2023-02-21T13:56:19;0.60;;;0.30;;
74535;SDS011;63013;51.104;-115.370;2023-02-21T14:02:19;0.30;;;0.30;;
74535;SDS011;63013;51.104;-115.370;2023-02-21T14:07:44;0.40;;;0.30;;
74535;SDS011;63013;51.104;-115.370;2023-02-21T14:10:32;0.60;;;0.30;;
74535;SDS011;63013;51.104;-115.370;2023-02-21T14:13:23;0.40;;;0.20;;
74535;SDS011;63013;51.104;-115.370;2023-02-21T14:21:44;0.30;;;0.30;;
74535;SDS011;63013;51.104;-115.370;2023-02-21T14:24:35;1.50;;;0.40;;
74535;SDS011;63013;51.104;-115.370;2023-02-21T14:35:37;0.40;;;0.30;;
74535;SDS011;63013;51.104;-115.370;2023-02-21T14:38:22;0.30;;;0.30;;
74535;SDS011;63013;51.104;-115.370;2023-02-21T14:43:40;0.20;;;0.20;;
74535;SDS011;63013;51.104;-115.370;2023-02-21T14:46:41;0.40;;;0.20;;
74535;SDS011;63013;51.104;-115.370;2023-02-21T14:49:40;0.40;;;0.30;;
74535;SDS011;63013;51.104;-115.370;2023-02-21T15:04:17;0.50;;;0.20;;
74535;SDS011;63013;51.104;-115.370;2023-02-21T15:07:11;0.20;;;0.20;;
74535;SDS011;63013;51.104;-115.370;2023-02-21T15:10:04;0.40;;;0.30;;
74535;SDS011;63013;51.104;-115.370;2023-02-21T15:12:48;0.20;;;0.20;;
74535;SDS011;63013;51.104;-115.370;2023-02-21T15:15:22;0.20;;;0.20;;
74535;SDS011;63013;51.104;-115.370;2023-02-21T15:18:02;0.20;;;0.20;;
74535;SDS011;63013;51.104;-115.370;2023-02-21T15:20:35;1.20;;;0.30;;
74535;SDS011;63013;51.104;-115.370;2023-02-21T15:25:40;0.20;;;0.20;;
74535;SDS011;63013;51.104;-115.370;2023-02-21T15:28:29;0.20;;;0.20;;
74535;SDS011;63013;51.104;-115.370;2023-02-21T15:31:23;0.40;;;0.20;;
74535;SDS011;63013;51.104;-115.370;2023-02-21T15:33:53;0.30;;;0.20;;
74535;SDS011;63013;51.104;-115.370;2023-02-21T15:36:21;0.20;;;0.20;;
74535;SDS011;63013;51.104;-115.370;2023-02-21T15:39:15;0.30;;;0.30;;
74535;SDS011;63013;51.104;-115.370;2023-02-21T15:42:08;0.90;;;0.20;;
74535;SDS011;63013;51.104;-115.370;2023-02-21T15:44:51;0.40;;;0.40;;
74535;SDS011;63013;51.104;-115.370;2023-02-21T15:47:26;0.20;;;0.20;;
74535;SDS011;63013;51.104;-115.370;2023-02-21T15:50:12;0.20;;;0.20;;
74535;SDS011;63013;51.104;-115.370;2023-02-21T15:52:47;0.30;;;0.30;;
74535;SDS011;63013;51.104;-115.370;2023-02-21T15:58:02;0.20;;;0.20;;
74535;SDS011;63013;51.104;-115.370;2023-02-21T16:00:38;0.30;;;0.20;;
74535;SDS011;63013;51.104;-115.370;2023-02-21T16:03:33;0.30;;;0.30;;
74535;SDS011;63013;51.104;-115.370;2023-02-21T16:09:02;0.20;;;0.20;;
74535;SDS011;63013;51.104;-115.370;2023-02-21T16:11:48;0.40;;;0.20;;
74535;SDS011;63013;51.104;-115.370;2023-02-21T16:14:42;0.30;;;0.30;;
74535;SDS011;63013;51.104;-115.370;2023-02-21T16:17:34;0.20;;;0.20;;
74535;SDS011;63013;51.104;-115.370;2023-02-21T16:22:47;0.40;;;0.30;;
74535;SDS011;63013;51.104;-115.370;2023-02-21T16:25:19;0.20;;;0.20;;
74535;SDS011;63013;51.104;-115.370;2023-02-21T16:31:29;0.40;;;0.30;;
74535;SDS011;63013;51.104;-115.370;2023-02-21T16:33:58;0.30;;;0.20;;
74535;SDS011;63013;51.104;-115.370;2023-02-21T16:36:28;0.30;;;0.30;;
74535;SDS011;63013;51.104;-115.370;2023-02-21T16:38:57;0.20;;;0.20;;
74535;SDS011;63013;51.104;-115.370;2023-02-21T16:41:25;0.40;;;0.30;;
74535;SDS011;63013;51.104;-115.370;2023-02-21T16:43:52;0.30;;;0.30;;
74535;SDS011;63013;51.104;-115.370;2023-02-21T16:46:24;0.20;;;0.20;;
74535;SDS011;63013;51.104;-115.370;2023-02-21T16:48:53;0.30;;;0.20;;
74535;SDS011;63013;51.104;-115.370;2023-02-21T16:51:21;0.30;;;0.30;;
74535;SDS011;63013;51.104;-115.370;2023-02-21T16:53:48;0.20;;;0.20;;
74535;SDS011;63013;51.104;-115.370;2023-02-21T16:56:16;0.80;;;0.30;;
74535;SDS011;63013;51.104;-115.370;2023-02-21T16:58:46;0.20;;;0.20;;
74535;SDS011;63013;51.104;-115.370;2023-02-21T17:01:29;0.30;;;0.30;;
74535;SDS011;63013;51.104;-115.370;2023-02-21T17:04:02;0.20;;;0.20;;
74535;SDS011;63013;51.104;-115.370;2023-02-21T17:06:32;0.40;;;0.30;;
74535;SDS011;63013;51.104;-115.370;2023-02-21T17:09:00;0.30;;;0.30;;
74535;SDS011;63013;51.104;-115.370;2023-02-21T17:11:27;0.30;;;0.30;;
74535;SDS011;63013;51.104;-115.370;2023-02-21T17:13:55;0.20;;;0.20;;
74535;SDS011;63013;51.104;-115.370;2023-02-21T17:16:22;0.20;;;0.20;;
74535;SDS011;63013;51.104;-115.370;2023-02-21T17:18:49;0.30;;;0.20;;
74535;SDS011;63013;51.104;-115.370;2023-02-21T17:21:16;0.20;;;0.20;;
74535;SDS011;63013;51.104;-115.370;2023-02-21T17:23:43;0.20;;;0.20;;